sensor_id;sensor_type;location;lat;lon;timestamp;temperature;humidity
19862;DHT22;10093;48.148;8.542;2022-09-01T00:01:22;13.10;99.90
19862;DHT22;10093;48.148;8.542;2022-09-01T00:03:51;13.10;99.90
19862;DHT22;10093;48.148;8.542;2022-09-01T00:06:19;13.10;99.90
19862;DHT22;10093;48.148;8.542;2022-09-01T00:08:56;13.10;99.90
19862;DHT22;10093;48.148;8.542;2022-09-01T00:11:23;13.10;99.90
19862;DHT22;10093;48.148;8.542;2022-09-01T00:13:50;13.00;99.90
19862;DHT22;10093;48.148;8.542;2022-09-01T00:16:18;13.00;99.90
19862;DHT22;10093;48.148;8.542;2022-09-01T00:18:46;12.90;99.90
19862;DHT22;10093;48.148;8.542;2022-09-01T00:21:14;12.90;99.90
19862;DHT22;10093;48.148;8.542;2022-09-01T00:23:40;12.80;99.90
19862;DHT22;10093;48.148;8.542;2022-09-01T00:26:05;12.80;99.90
19862;DHT22;10093;48.148;8.542;2022-09-01T00:28:36;12.80;99.90
19862;DHT22;10093;48.148;8.542;2022-09-01T00:31:02;12.90;99.90
19862;DHT22;10093;48.148;8.542;2022-09-01T00:33:29;12.80;99.90
19862;DHT22;10093;48.148;8.542;2022-09-01T00:35:55;12.80;99.90
19862;DHT22;10093;48.148;8.542;2022-09-01T00:38:20;12.70;99.90
19862;DHT22;10093;48.148;8.542;2022-09-01T00:40:46;12.70;99.90
19862;DHT22;10093;48.148;8.542;2022-09-01T00:46:06;12.60;99.90
19862;DHT22;10093;48.148;8.542;2022-09-01T00:48:31;12.40;99.90
19862;DHT22;10093;48.148;8.542;2022-09-01T00:50:58;12.30;99.90
19862;DHT22;10093;48.148;8.542;2022-09-01T00:53:24;12.20;99.90
19862;DHT22;10093;48.148;8.542;2022-09-01T00:55:50;12.10;99.90
19862;DHT22;10093;48.148;8.542;2022-09-01T00:58:16;12.00;99.90
19862;DHT22;10093;48.148;8.542;2022-09-01T01:00:42;12.00;99.90
19862;DHT22;10093;48.148;8.542;2022-09-01T01:03:12;12.10;99.90
19862;DHT22;10093;48.148;8.542;2022-09-01T01:05:45;12.10;99.90
19862;DHT22;10093;48.148;8.542;2022-09-01T01:08:13;12.30;99.90
19862;DHT22;10093;48.148;8.542;2022-09-01T01:10:44;12.40;99.90
19862;DHT22;10093;48.148;8.542;2022-09-01T01:13:12;12.40;99.90
19862;DHT22;10093;48.148;8.542;2022-09-01T01:15:40;12.40;99.90
19862;DHT22;10093;48.148;8.542;2022-09-01T01:18:10;12.40;99.90
19862;DHT22;10093;48.148;8.542;2022-09-01T01:20:37;12.40;99.90
19862;DHT22;10093;48.148;8.542;2022-09-01T01:23:48;12.40;99.90
19862;DHT22;10093;48.148;8.542;2022-09-01T01:26:15;12.30;99.90
19862;DHT22;10093;48.148;8.542;2022-09-01T01:28:42;12.40;99.90
19862;DHT22;10093;48.148;8.542;2022-09-01T01:31:11;12.30;99.90
19862;DHT22;10093;48.148;8.542;2022-09-01T01:36:28;12.30;99.90
19862;DHT22;10093;48.148;8.542;2022-09-01T01:39:08;12.20;99.90
19862;DHT22;10093;48.148;8.542;2022-09-01T01:41:35;12.20;99.90
19862;DHT22;10093;48.148;8.542;2022-09-01T01:44:02;12.20;99.90
19862;DHT22;10093;48.148;8.542;2022-09-01T01:46:31;12.10;99.90
19862;DHT22;10093;48.148;8.542;2022-09-01T01:48:58;12.00;99.90
19862;DHT22;10093;48.148;8.542;2022-09-01T01:51:26;12.00;99.90
19862;DHT22;10093;48.148;8.542;2022-09-01T01:53:53;12.20;99.90
19862;DHT22;10093;48.148;8.542;2022-09-01T01:56:20;12.10;99.90
19862;DHT22;10093;48.148;8.542;2022-09-01T01:58:51;12.30;99.90
19862;DHT22;10093;48.148;8.542;2022-09-01T02:01:22;12.30;99.90
19862;DHT22;10093;48.148;8.542;2022-09-01T02:03:50;12.30;99.90
19862;DHT22;10093;48.148;8.542;2022-09-01T02:06:20;12.30;99.90
19862;DHT22;10093;48.148;8.542;2022-09-01T02:08:53;12.20;99.90
19862;DHT22;10093;48.148;8.542;2022-09-01T02:11:23;12.30;99.90
19862;DHT22;10093;48.148;8.542;2022-09-01T02:13:51;12.20;99.90
19862;DHT22;10093;48.148;8.542;2022-09-01T02:16:21;12.10;99.90
19862;DHT22;10093;48.148;8.542;2022-09-01T02:18:47;12.20;99.90
19862;DHT22;10093;48.148;8.542;2022-09-01T02:21:16;12.30;99.90
19862;DHT22;10093;48.148;8.542;2022-09-01T02:23:46;12.20;99.90
19862;DHT22;10093;48.148;8.542;2022-09-01T02:26:13;12.10;99.90
19862;DHT22;10093;48.148;8.542;2022-09-01T02:28:42;12.10;99.90
19862;DHT22;10093;48.148;8.542;2022-09-01T02:31:09;12.00;99.90
19862;DHT22;10093;48.148;8.542;2022-09-01T02:33:37;11.80;99.90
19862;DHT22;10093;48.148;8.542;2022-09-01T02:36:14;11.70;99.90
19862;DHT22;10093;48.148;8.542;2022-09-01T02:38:42;11.80;99.90
19862;DHT22;10093;48.148;8.542;2022-09-01T02:41:09;11.70;99.90
19862;DHT22;10093;48.148;8.542;2022-09-01T02:43:36;11.80;99.90
19862;DHT22;10093;48.148;8.542;2022-09-01T02:46:03;11.80;99.90
19862;DHT22;10093;48.148;8.542;2022-09-01T02:48:34;12.00;99.90
19862;DHT22;10093;48.148;8.542;2022-09-01T02:51:14;12.00;99.90
19862;DHT22;10093;48.148;8.542;2022-09-01T02:53:42;12.10;99.90
19862;DHT22;10093;48.148;8.542;2022-09-01T02:56:10;11.90;99.90
19862;DHT22;10093;48.148;8.542;2022-09-01T02:58:42;11.80;99.90
19862;DHT22;10093;48.148;8.542;2022-09-01T03:01:21;11.60;99.90
19862;DHT22;10093;48.148;8.542;2022-09-01T03:03:51;11.50;99.90
19862;DHT22;10093;48.148;8.542;2022-09-01T03:06:17;11.50;99.90
19862;DHT22;10093;48.148;8.542;2022-09-01T03:08:44;11.40;99.90
19862;DHT22;10093;48.148;8.542;2022-09-01T03:11:10;11.40;99.90
19862;DHT22;10093;48.148;8.542;2022-09-01T03:13:40;11.40;99.90
19862;DHT22;10093;48.148;8.542;2022-09-01T03:16:07;11.40;99.90
19862;DHT22;10093;48.148;8.542;2022-09-01T03:18:33;11.40;99.90
19862;DHT22;10093;48.148;8.542;2022-09-01T03:20:59;11.50;99.90
19862;DHT22;10093;48.148;8.542;2022-09-01T03:23:27;11.50;99.90
19862;DHT22;10093;48.148;8.542;2022-09-01T03:25:53;11.70;99.90
19862;DHT22;10093;48.148;8.542;2022-09-01T03:28:19;11.70;99.90
19862;DHT22;10093;48.148;8.542;2022-09-01T03:30:48;11.50;99.90
19862;DHT22;10093;48.148;8.542;2022-09-01T03:33:15;11.40;99.90
19862;DHT22;10093;48.148;8.542;2022-09-01T03:35:43;11.40;99.90
19862;DHT22;10093;48.148;8.542;2022-09-01T03:38:09;11.40;99.90
19862;DHT22;10093;48.148;8.542;2022-09-01T03:40:37;11.30;99.90
19862;DHT22;10093;48.148;8.542;2022-09-01T03:43:05;11.30;99.90
19862;DHT22;10093;48.148;8.542;2022-09-01T03:45:31;11.30;99.90
19862;DHT22;10093;48.148;8.542;2022-09-01T03:48:05;11.60;99.90
19862;DHT22;10093;48.148;8.542;2022-09-01T03:50:36;11.60;99.90
19862;DHT22;10093;48.148;8.542;2022-09-01T03:53:15;11.60;99.90
19862;DHT22;10093;48.148;8.542;2022-09-01T03:55:44;11.40;99.90
19862;DHT22;10093;48.148;8.542;2022-09-01T03:58:11;11.40;99.90
19862;DHT22;10093;48.148;8.542;2022-09-01T04:00:45;11.60;99.90
19862;DHT22;10093;48.148;8.542;2022-09-01T04:03:11;11.70;99.90
19862;DHT22;10093;48.148;8.542;2022-09-01T04:05:41;11.70;99.90
19862;DHT22;10093;48.148;8.542;2022-09-01T04:08:08;11.80;99.90
19862;DHT22;10093;48.148;8.542;2022-09-01T04:10:41;11.80;99.90
19862;DHT22;10093;48.148;8.542;2022-09-01T04:13:09;11.70;99.90
19862;DHT22;10093;48.148;8.542;2022-09-01T04:15:37;11.70;99.90
19862;DHT22;10093;48.148;8.542;2022-09-01T04:18:02;11.70;99.90
19862;DHT22;10093;48.148;8.542;2022-09-01T04:20:36;11.70;99.90
19862;DHT22;10093;48.148;8.542;2022-09-01T04:23:13;11.70;99.90
19862;DHT22;10093;48.148;8.542;2022-09-01T04:25:51;11.70;99.90
19862;DHT22;10093;48.148;8.542;2022-09-01T04:28:18;11.70;99.90
19862;DHT22;10093;48.148;8.542;2022-09-01T04:30:55;11.70;99.90
19862;DHT22;10093;48.148;8.542;2022-09-01T04:33:27;11.60;99.90
19862;DHT22;10093;48.148;8.542;2022-09-01T04:36:05;11.50;99.90
19862;DHT22;10093;48.148;8.542;2022-09-01T04:38:31;11.50;99.90
19862;DHT22;10093;48.148;8.542;2022-09-01T04:41:02;11.50;99.90
19862;DHT22;10093;48.148;8.542;2022-09-01T04:43:28;11.50;99.90
19862;DHT22;10093;48.148;8.542;2022-09-01T04:45:54;11.40;99.90
19862;DHT22;10093;48.148;8.542;2022-09-01T04:48:20;11.50;99.90
19862;DHT22;10093;48.148;8.542;2022-09-01T04:50:47;11.50;99.90
19862;DHT22;10093;48.148;8.542;2022-09-01T04:53:14;11.60;99.90
19862;DHT22;10093;48.148;8.542;2022-09-01T04:55:40;11.50;99.90
19862;DHT22;10093;48.148;8.542;2022-09-01T04:58:11;11.50;99.90
19862;DHT22;10093;48.148;8.542;2022-09-01T05:00:39;11.50;99.90
19862;DHT22;10093;48.148;8.542;2022-09-01T05:03:05;11.50;99.90
19862;DHT22;10093;48.148;8.542;2022-09-01T05:05:41;11.60;99.90
19862;DHT22;10093;48.148;8.542;2022-09-01T05:08:16;11.60;99.90
19862;DHT22;10093;48.148;8.542;2022-09-01T05:10:45;11.60;99.90
19862;DHT22;10093;48.148;8.542;2022-09-01T05:13:12;11.60;99.90
19862;DHT22;10093;48.148;8.542;2022-09-01T05:15:43;11.60;99.90
19862;DHT22;10093;48.148;8.542;2022-09-01T05:18:16;11.70;99.90
19862;DHT22;10093;48.148;8.542;2022-09-01T05:20:48;11.70;99.90
19862;DHT22;10093;48.148;8.542;2022-09-01T05:23:13;11.70;99.90
19862;DHT22;10093;48.148;8.542;2022-09-01T05:25:40;11.80;99.90
19862;DHT22;10093;48.148;8.542;2022-09-01T05:28:11;11.70;99.90
19862;DHT22;10093;48.148;8.542;2022-09-01T05:30:38;11.60;99.90
19862;DHT22;10093;48.148;8.542;2022-09-01T05:33:05;11.80;99.90
19862;DHT22;10093;48.148;8.542;2022-09-01T05:35:42;11.70;99.90
19862;DHT22;10093;48.148;8.542;2022-09-01T05:38:11;11.80;99.90
19862;DHT22;10093;48.148;8.542;2022-09-01T05:40:41;11.90;99.90
19862;DHT22;10093;48.148;8.542;2022-09-01T05:43:10;11.90;99.90
19862;DHT22;10093;48.148;8.542;2022-09-01T05:45:41;11.90;99.90
19862;DHT22;10093;48.148;8.542;2022-09-01T05:48:12;12.10;99.90
19862;DHT22;10093;48.148;8.542;2022-09-01T05:50:42;11.90;99.90
19862;DHT22;10093;48.148;8.542;2022-09-01T05:53:11;11.90;99.90
19862;DHT22;10093;48.148;8.542;2022-09-01T05:55:45;12.00;99.90
19862;DHT22;10093;48.148;8.542;2022-09-01T05:58:12;12.30;99.90
19862;DHT22;10093;48.148;8.542;2022-09-01T06:00:42;12.30;99.90
19862;DHT22;10093;48.148;8.542;2022-09-01T06:03:11;12.50;99.90
19862;DHT22;10093;48.148;8.542;2022-09-01T06:05:39;12.40;99.90
19862;DHT22;10093;48.148;8.542;2022-09-01T06:08:06;12.70;99.90
19862;DHT22;10093;48.148;8.542;2022-09-01T06:10:36;12.90;99.90
19862;DHT22;10093;48.148;8.542;2022-09-01T06:13:05;13.00;99.90
19862;DHT22;10093;48.148;8.542;2022-09-01T06:15:32;13.20;99.90
19862;DHT22;10093;48.148;8.542;2022-09-01T06:17:58;13.20;99.90
19862;DHT22;10093;48.148;8.542;2022-09-01T06:20:25;13.40;99.90
19862;DHT22;10093;48.148;8.542;2022-09-01T06:22:52;13.40;99.90
19862;DHT22;10093;48.148;8.542;2022-09-01T06:25:19;13.50;99.90
19862;DHT22;10093;48.148;8.542;2022-09-01T06:27:46;13.70;99.90
19862;DHT22;10093;48.148;8.542;2022-09-01T06:30:14;13.70;99.90
19862;DHT22;10093;48.148;8.542;2022-09-01T06:32:43;13.70;99.90
19862;DHT22;10093;48.148;8.542;2022-09-01T06:35:10;13.80;99.90
19862;DHT22;10093;48.148;8.542;2022-09-01T06:37:39;14.00;99.90
19862;DHT22;10093;48.148;8.542;2022-09-01T06:40:09;14.00;99.90
19862;DHT22;10093;48.148;8.542;2022-09-01T06:42:46;13.90;99.90
19862;DHT22;10093;48.148;8.542;2022-09-01T06:45:13;14.10;99.90
19862;DHT22;10093;48.148;8.542;2022-09-01T06:47:40;14.30;99.90
19862;DHT22;10093;48.148;8.542;2022-09-01T06:50:08;14.60;99.90
19862;DHT22;10093;48.148;8.542;2022-09-01T06:52:35;14.90;99.90
19862;DHT22;10093;48.148;8.542;2022-09-01T06:55:03;15.10;99.90
19862;DHT22;10093;48.148;8.542;2022-09-01T06:57:28;15.30;99.90
19862;DHT22;10093;48.148;8.542;2022-09-01T06:59:54;15.70;99.90
19862;DHT22;10093;48.148;8.542;2022-09-01T07:02:20;15.90;99.90
19862;DHT22;10093;48.148;8.542;2022-09-01T07:04:46;16.40;99.90
19862;DHT22;10093;48.148;8.542;2022-09-01T07:07:14;16.90;99.90
19862;DHT22;10093;48.148;8.542;2022-09-01T07:09:40;18.00;99.90
19862;DHT22;10093;48.148;8.542;2022-09-01T07:12:06;19.50;99.90
19862;DHT22;10093;48.148;8.542;2022-09-01T07:14:32;20.30;99.90
19862;DHT22;10093;48.148;8.542;2022-09-01T07:16:57;22.00;99.90
19862;DHT22;10093;48.148;8.542;2022-09-01T07:19:23;22.90;99.90
19862;DHT22;10093;48.148;8.542;2022-09-01T07:21:51;23.80;99.90
19862;DHT22;10093;48.148;8.542;2022-09-01T07:24:18;24.50;99.90
19862;DHT22;10093;48.148;8.542;2022-09-01T07:26:45;25.10;99.90
19862;DHT22;10093;48.148;8.542;2022-09-01T07:29:15;24.40;99.90
19862;DHT22;10093;48.148;8.542;2022-09-01T07:31:42;23.40;99.90
19862;DHT22;10093;48.148;8.542;2022-09-01T07:34:10;22.10;99.90
19862;DHT22;10093;48.148;8.542;2022-09-01T07:36:38;20.40;99.90
19862;DHT22;10093;48.148;8.542;2022-09-01T07:39:05;20.80;99.90
19862;DHT22;10093;48.148;8.542;2022-09-01T07:41:31;20.90;99.90
19862;DHT22;10093;48.148;8.542;2022-09-01T07:44:00;19.80;99.90
19862;DHT22;10093;48.148;8.542;2022-09-01T07:46:28;19.20;99.90
19862;DHT22;10093;48.148;8.542;2022-09-01T07:48:56;18.80;99.90
19862;DHT22;10093;48.148;8.542;2022-09-01T07:51:23;18.30;99.90
19862;DHT22;10093;48.148;8.542;2022-09-01T07:53:49;19.00;99.90
19862;DHT22;10093;48.148;8.542;2022-09-01T07:56:17;20.20;99.90
19862;DHT22;10093;48.148;8.542;2022-09-01T07:58:46;20.10;99.90
19862;DHT22;10093;48.148;8.542;2022-09-01T08:01:23;20.90;99.90
19862;DHT22;10093;48.148;8.542;2022-09-01T08:03:52;21.50;99.90
19862;DHT22;10093;48.148;8.542;2022-09-01T08:06:20;22.30;99.90
19862;DHT22;10093;48.148;8.542;2022-09-01T08:08:48;22.90;99.90
19862;DHT22;10093;48.148;8.542;2022-09-01T08:11:28;22.80;99.90
19862;DHT22;10093;48.148;8.542;2022-09-01T08:13:55;21.90;99.90
19862;DHT22;10093;48.148;8.542;2022-09-01T08:16:23;21.80;99.90
19862;DHT22;10093;48.148;8.542;2022-09-01T08:18:49;21.50;99.90
19862;DHT22;10093;48.148;8.542;2022-09-01T08:21:16;21.60;99.90
19862;DHT22;10093;48.148;8.542;2022-09-01T08:23:42;20.70;99.90
19862;DHT22;10093;48.148;8.542;2022-09-01T08:26:13;21.10;99.90
19862;DHT22;10093;48.148;8.542;2022-09-01T08:28:39;21.30;99.90
19862;DHT22;10093;48.148;8.542;2022-09-01T08:31:06;21.50;99.90
19862;DHT22;10093;48.148;8.542;2022-09-01T08:33:32;21.90;99.90
19862;DHT22;10093;48.148;8.542;2022-09-01T08:35:59;21.30;99.90
19862;DHT22;10093;48.148;8.542;2022-09-01T08:38:25;21.10;99.90
19862;DHT22;10093;48.148;8.542;2022-09-01T08:40:53;23.10;99.90
19862;DHT22;10093;48.148;8.542;2022-09-01T08:45:59;23.30;99.90
19862;DHT22;10093;48.148;8.542;2022-09-01T08:48:40;23.90;99.90
19862;DHT22;10093;48.148;8.542;2022-09-01T08:51:55;26.00;99.90
19862;DHT22;10093;48.148;8.542;2022-09-01T08:54:08;27.20;99.90
19862;DHT22;10093;48.148;8.542;2022-09-01T08:56:36;26.70;99.90
19862;DHT22;10093;48.148;8.542;2022-09-01T08:59:03;25.60;99.90
19862;DHT22;10093;48.148;8.542;2022-09-01T09:07:11;23.60;99.90
19862;DHT22;10093;48.148;8.542;2022-09-01T09:09:45;22.30;99.90
19862;DHT22;10093;48.148;8.542;2022-09-01T09:17:20;25.10;99.90
19862;DHT22;10093;48.148;8.542;2022-09-01T09:19:47;22.60;99.90
19862;DHT22;10093;48.148;8.542;2022-09-01T09:22:16;21.60;99.90
19862;DHT22;10093;48.148;8.542;2022-09-01T09:25:02;21.10;99.90
19862;DHT22;10093;48.148;8.542;2022-09-01T09:27:34;21.00;99.90
19862;DHT22;10093;48.148;8.542;2022-09-01T09:30:20;21.80;99.90
19862;DHT22;10093;48.148;8.542;2022-09-01T09:33:01;23.60;99.90
19862;DHT22;10093;48.148;8.542;2022-09-01T09:41:08;26.90;99.90
19862;DHT22;10093;48.148;8.542;2022-09-01T09:44:02;25.40;99.90
19862;DHT22;10093;48.148;8.542;2022-09-01T09:46:35;24.30;99.90
19862;DHT22;10093;48.148;8.542;2022-09-01T09:51:48;24.70;99.90
19862;DHT22;10093;48.148;8.542;2022-09-01T09:54:18;26.60;99.90
19862;DHT22;10093;48.148;8.542;2022-09-01T09:56:45;28.20;99.90
19862;DHT22;10093;48.148;8.542;2022-09-01T09:59:29;25.50;99.90
19862;DHT22;10093;48.148;8.542;2022-09-01T10:01:57;24.20;99.90
19862;DHT22;10093;48.148;8.542;2022-09-01T10:04:32;25.30;99.90
19862;DHT22;10093;48.148;8.542;2022-09-01T10:06:58;24.20;99.90
19862;DHT22;10093;48.148;8.542;2022-09-01T10:11:54;22.90;99.90
19862;DHT22;10093;48.148;8.542;2022-09-01T10:16:57;22.00;99.90
19862;DHT22;10093;48.148;8.542;2022-09-01T10:19:24;21.70;99.90
19862;DHT22;10093;48.148;8.542;2022-09-01T10:21:52;22.50;99.90
19862;DHT22;10093;48.148;8.542;2022-09-01T10:24:30;23.60;99.90
19862;DHT22;10093;48.148;8.542;2022-09-01T10:26:59;21.20;99.90
19862;DHT22;10093;48.148;8.542;2022-09-01T10:29:33;21.20;99.90
19862;DHT22;10093;48.148;8.542;2022-09-01T10:32:01;21.80;99.90
19862;DHT22;10093;48.148;8.542;2022-09-01T10:34:35;21.60;99.90
19862;DHT22;10093;48.148;8.542;2022-09-01T10:37:02;20.60;99.90
19862;DHT22;10093;48.148;8.542;2022-09-01T10:39:28;22.40;99.90
19862;DHT22;10093;48.148;8.542;2022-09-01T10:41:58;24.40;99.90
19862;DHT22;10093;48.148;8.542;2022-09-01T10:44:37;24.90;99.90
19862;DHT22;10093;48.148;8.542;2022-09-01T10:47:24;24.30;99.90
19862;DHT22;10093;48.148;8.542;2022-09-01T10:55:20;21.20;99.90
19862;DHT22;10093;48.148;8.542;2022-09-01T11:00:45;21.50;99.90
19862;DHT22;10093;48.148;8.542;2022-09-01T11:11:02;21.00;99.90
19862;DHT22;10093;48.148;8.542;2022-09-01T11:13:47;20.80;99.90
19862;DHT22;10093;48.148;8.542;2022-09-01T11:16:35;21.80;99.90
19862;DHT22;10093;48.148;8.542;2022-09-01T11:19:27;24.30;99.90
19862;DHT22;10093;48.148;8.542;2022-09-01T11:22:15;24.40;99.90
19862;DHT22;10093;48.148;8.542;2022-09-01T11:30:32;23.40;99.90
19862;DHT22;10093;48.148;8.542;2022-09-01T11:36:05;24.60;99.90
19862;DHT22;10093;48.148;8.542;2022-09-01T11:39:02;24.40;99.90
19862;DHT22;10093;48.148;8.542;2022-09-01T11:41:33;23.30;99.90
19862;DHT22;10093;48.148;8.542;2022-09-01T11:44:02;21.30;99.90
19862;DHT22;10093;48.148;8.542;2022-09-01T11:46:33;20.80;99.90
19862;DHT22;10093;48.148;8.542;2022-09-01T11:49:06;20.50;99.90
19862;DHT22;10093;48.148;8.542;2022-09-01T11:51:44;20.40;99.90
19862;DHT22;10093;48.148;8.542;2022-09-01T11:54:11;21.70;99.90
19862;DHT22;10093;48.148;8.542;2022-09-01T11:56:37;23.30;99.90
19862;DHT22;10093;48.148;8.542;2022-09-01T11:59:03;24.00;99.90
19862;DHT22;10093;48.148;8.542;2022-09-01T12:03:54;24.10;99.90
19862;DHT22;10093;48.148;8.542;2022-09-01T12:06:23;23.30;99.90
19862;DHT22;10093;48.148;8.542;2022-09-01T12:08:58;22.90;99.90
19862;DHT22;10093;48.148;8.542;2022-09-01T12:11:33;23.10;99.90
19862;DHT22;10093;48.148;8.542;2022-09-01T12:14:04;22.80;99.90
19862;DHT22;10093;48.148;8.542;2022-09-01T12:16:32;22.40;99.90
19862;DHT22;10093;48.148;8.542;2022-09-01T12:18:59;22.60;99.90
19862;DHT22;10093;48.148;8.542;2022-09-01T12:21:34;22.10;99.90
19862;DHT22;10093;48.148;8.542;2022-09-01T12:24:18;23.20;99.90
19862;DHT22;10093;48.148;8.542;2022-09-01T12:26:50;23.00;99.90
19862;DHT22;10093;48.148;8.542;2022-09-01T12:29:18;21.90;99.90
19862;DHT22;10093;48.148;8.542;2022-09-01T12:31:47;21.90;99.90
19862;DHT22;10093;48.148;8.542;2022-09-01T12:39:37;21.90;99.90
19862;DHT22;10093;48.148;8.542;2022-09-01T12:44:43;23.10;99.90
19862;DHT22;10093;48.148;8.542;2022-09-01T12:47:20;23.00;99.90
19862;DHT22;10093;48.148;8.542;2022-09-01T12:50:31;23.10;99.90
19862;DHT22;10093;48.148;8.542;2022-09-01T12:52:46;21.90;99.90
19862;DHT22;10093;48.148;8.542;2022-09-01T12:55:18;20.80;99.90
19862;DHT22;10093;48.148;8.542;2022-09-01T12:58:05;20.60;99.90
19862;DHT22;10093;48.148;8.542;2022-09-01T13:00:52;21.00;99.90
19862;DHT22;10093;48.148;8.542;2022-09-01T13:03:18;21.20;99.90
19862;DHT22;10093;48.148;8.542;2022-09-01T13:05:50;22.80;99.90
19862;DHT22;10093;48.148;8.542;2022-09-01T13:08:33;22.00;99.90
19862;DHT22;10093;48.148;8.542;2022-09-01T13:11:06;23.20;99.90
19862;DHT22;10093;48.148;8.542;2022-09-01T13:13:32;22.10;99.90
19862;DHT22;10093;48.148;8.542;2022-09-01T13:16:01;20.90;99.90
19862;DHT22;10093;48.148;8.542;2022-09-01T13:18:29;20.60;99.90
19862;DHT22;10093;48.148;8.542;2022-09-01T13:20:55;20.30;99.90
19862;DHT22;10093;48.148;8.542;2022-09-01T13:23:21;20.90;99.90
19862;DHT22;10093;48.148;8.542;2022-09-01T13:25:47;20.70;99.90
19862;DHT22;10093;48.148;8.542;2022-09-01T13:28:14;20.40;99.90
19862;DHT22;10093;48.148;8.542;2022-09-01T13:30:43;20.40;99.90
19862;DHT22;10093;48.148;8.542;2022-09-01T13:33:09;20.60;99.90
19862;DHT22;10093;48.148;8.542;2022-09-01T13:35:37;20.30;99.90
19862;DHT22;10093;48.148;8.542;2022-09-01T13:38:03;20.30;99.90
19862;DHT22;10093;48.148;8.542;2022-09-01T13:40:29;20.80;99.90
19862;DHT22;10093;48.148;8.542;2022-09-01T13:42:55;21.10;99.90
19862;DHT22;10093;48.148;8.542;2022-09-01T13:45:22;20.80;99.90
19862;DHT22;10093;48.148;8.542;2022-09-01T13:47:52;20.60;99.90
19862;DHT22;10093;48.148;8.542;2022-09-01T13:50:20;20.10;99.90
19862;DHT22;10093;48.148;8.542;2022-09-01T13:52:50;20.10;99.90
19862;DHT22;10093;48.148;8.542;2022-09-01T13:55:19;20.10;99.90
19862;DHT22;10093;48.148;8.542;2022-09-01T13:57:44;20.30;99.90
19862;DHT22;10093;48.148;8.542;2022-09-01T14:00:14;20.10;99.90
19862;DHT22;10093;48.148;8.542;2022-09-01T14:02:44;21.60;99.90
19862;DHT22;10093;48.148;8.542;2022-09-01T14:05:25;23.30;99.90
19862;DHT22;10093;48.148;8.542;2022-09-01T14:07:52;23.90;99.90
19862;DHT22;10093;48.148;8.542;2022-09-01T14:10:19;23.80;99.90
19862;DHT22;10093;48.148;8.542;2022-09-01T14:12:45;23.70;99.90
19862;DHT22;10093;48.148;8.542;2022-09-01T14:15:13;23.70;99.90
19862;DHT22;10093;48.148;8.542;2022-09-01T14:17:40;22.10;99.90
19862;DHT22;10093;48.148;8.542;2022-09-01T14:20:10;21.90;99.90
19862;DHT22;10093;48.148;8.542;2022-09-01T14:22:37;21.90;99.90
19862;DHT22;10093;48.148;8.542;2022-09-01T14:25:05;22.80;99.90
19862;DHT22;10093;48.148;8.542;2022-09-01T14:27:31;22.30;99.90
19862;DHT22;10093;48.148;8.542;2022-09-01T14:29:57;22.40;99.90
19862;DHT22;10093;48.148;8.542;2022-09-01T14:32:22;21.90;99.90
19862;DHT22;10093;48.148;8.542;2022-09-01T14:34:54;21.40;99.90
19862;DHT22;10093;48.148;8.542;2022-09-01T14:37:20;20.20;99.90
19862;DHT22;10093;48.148;8.542;2022-09-01T14:39:50;20.10;99.90
19862;DHT22;10093;48.148;8.542;2022-09-01T14:42:16;19.90;99.90
19862;DHT22;10093;48.148;8.542;2022-09-01T14:44:44;19.80;99.90
19862;DHT22;10093;48.148;8.542;2022-09-01T14:47:10;19.80;99.90
19862;DHT22;10093;48.148;8.542;2022-09-01T14:49:36;19.70;99.90
19862;DHT22;10093;48.148;8.542;2022-09-01T14:52:06;19.90;99.90
19862;DHT22;10093;48.148;8.542;2022-09-01T14:54:40;20.40;99.90
19862;DHT22;10093;48.148;8.542;2022-09-01T14:57:07;20.90;99.90
19862;DHT22;10093;48.148;8.542;2022-09-01T14:59:34;21.30;99.90
19862;DHT22;10093;48.148;8.542;2022-09-01T15:02:01;21.40;99.90
19862;DHT22;10093;48.148;8.542;2022-09-01T15:04:27;21.20;99.90
19862;DHT22;10093;48.148;8.542;2022-09-01T15:06:53;21.20;99.90
19862;DHT22;10093;48.148;8.542;2022-09-01T15:09:19;21.00;99.90
19862;DHT22;10093;48.148;8.542;2022-09-01T15:11:45;21.70;99.90
19862;DHT22;10093;48.148;8.542;2022-09-01T15:14:11;22.10;99.90
19862;DHT22;10093;48.148;8.542;2022-09-01T15:16:37;22.40;99.90
19862;DHT22;10093;48.148;8.542;2022-09-01T15:19:10;23.30;99.90
19862;DHT22;10093;48.148;8.542;2022-09-01T15:21:37;23.70;99.90
19862;DHT22;10093;48.148;8.542;2022-09-01T15:24:12;23.70;99.90
19862;DHT22;10093;48.148;8.542;2022-09-01T15:26:38;23.30;99.90
19862;DHT22;10093;48.148;8.542;2022-09-01T15:29:08;23.20;99.90
19862;DHT22;10093;48.148;8.542;2022-09-01T15:31:37;22.90;99.90
19862;DHT22;10093;48.148;8.542;2022-09-01T15:34:04;22.50;99.90
19862;DHT22;10093;48.148;8.542;2022-09-01T15:36:30;22.10;99.90
19862;DHT22;10093;48.148;8.542;2022-09-01T15:38:58;22.20;99.90
19862;DHT22;10093;48.148;8.542;2022-09-01T15:41:30;21.20;99.90
19862;DHT22;10093;48.148;8.542;2022-09-01T15:43:57;21.00;99.90
19862;DHT22;10093;48.148;8.542;2022-09-01T15:46:23;20.70;99.90
19862;DHT22;10093;48.148;8.542;2022-09-01T15:48:57;20.40;99.90
19862;DHT22;10093;48.148;8.542;2022-09-01T15:53:49;20.20;99.90
19862;DHT22;10093;48.148;8.542;2022-09-01T15:56:15;20.50;99.90
19862;DHT22;10093;48.148;8.542;2022-09-01T15:58:46;20.50;99.90
19862;DHT22;10093;48.148;8.542;2022-09-01T16:01:12;20.30;99.90
19862;DHT22;10093;48.148;8.542;2022-09-01T16:03:38;20.30;99.90
19862;DHT22;10093;48.148;8.542;2022-09-01T16:06:05;20.30;99.90
19862;DHT22;10093;48.148;8.542;2022-09-01T16:08:31;20.10;99.90
19862;DHT22;10093;48.148;8.542;2022-09-01T16:10:57;20.00;99.90
19862;DHT22;10093;48.148;8.542;2022-09-01T16:13:23;19.80;99.90
19862;DHT22;10093;48.148;8.542;2022-09-01T16:16:24;19.80;99.90
19862;DHT22;10093;48.148;8.542;2022-09-01T16:19:03;19.90;99.90
19862;DHT22;10093;48.148;8.542;2022-09-01T16:24:11;20.20;99.90
19862;DHT22;10093;48.148;8.542;2022-09-01T16:26:38;20.00;99.90
19862;DHT22;10093;48.148;8.542;2022-09-01T16:29:13;20.10;99.90
19862;DHT22;10093;48.148;8.542;2022-09-01T16:31:39;20.10;99.90
19862;DHT22;10093;48.148;8.542;2022-09-01T16:34:15;20.20;99.90
19862;DHT22;10093;48.148;8.542;2022-09-01T16:48:25;19.60;99.90
19862;DHT22;10093;48.148;8.542;2022-09-01T16:51:12;19.60;99.90
19862;DHT22;10093;48.148;8.542;2022-09-01T16:53:53;19.70;99.90
19862;DHT22;10093;48.148;8.542;2022-09-01T17:02:08;19.40;99.90
19862;DHT22;10093;48.148;8.542;2022-09-01T17:05:39;19.40;99.90
19862;DHT22;10093;48.148;8.542;2022-09-01T17:08:22;19.60;99.90
19862;DHT22;10093;48.148;8.542;2022-09-01T17:10:49;19.30;99.90
19862;DHT22;10093;48.148;8.542;2022-09-01T17:13:18;19.10;99.90
19862;DHT22;10093;48.148;8.542;2022-09-01T17:15:51;19.00;99.90
19862;DHT22;10093;48.148;8.542;2022-09-01T17:20:54;18.80;99.90